Terminal Aerodrome Forecast
Issued by NWS

Home | Current Version | Previous Version | Text Only | Print | Product List | Glossary On
Versions: 1 2 3 4 5 6 7 8 9 10 11 12 13 14 15 16 17 18 19 20 21 22 23 24 25 26 27 28 29 30 31 32 33
632
FTUS46 KLOX 311404 AAB
TAFSBA
TAF AMD
KSBA 311404Z 3114/0112 14006KT 4SM BR OVC004
     FM311600 VRB05KT P6SM BKN009
     FM311800 17007KT P6SM OVC012
     FM312200 23008KT P6SM SCT015
     FM011100 VRB05KT 5SM BR OVC004=

USA.gov is the U.S. government's official web portal to all federal, state and local government web resources and services.